Time;durP1;ratioP1;P1;durP2;ratioP2;P2;SDS_P1;SDS_P2;PMS_P1;PMS_P2;Temp;Humidity;BMP_temperature;BMP_pressure;BME280_temperature;BME280_humidity;BME280_pressure;Samples;Min_cycle;Max_cycle;Signal;HPM_P1;HPM_P2
2023/03/30 00:00:38;;;;;;;8.02;4.07;;;;;;;8.09;59.64;100234.81;4392317;32;20127;-82
2023/03/30 00:03:04;;;;;;;10.60;4.93;;;;;;;8.17;59.64;100243.34;4392121;32;20414;-82
2023/03/30 00:05:29;;;;;;;9.60;4.72;;;;;;;8.21;59.64;100238.09;4379265;32;20121;-81
2023/03/30 00:07:55;;;;;;;9.40;4.10;;;;;;;8.28;59.64;100237.13;4367057;32;20136;-82
2023/03/30 00:10:20;;;;;;;9.20;4.37;;;;;;;8.14;59.65;100236.47;4379289;32;20121;-82
2023/03/30 00:12:46;;;;;;;8.40;4.00;;;;;;;8.15;59.65;100230.41;4392202;32;20451;-82
2023/03/30 00:15:12;;;;;;;11.20;4.28;;;;;;;8.30;59.65;100226.75;4382473;32;20842;-82
2023/03/30 00:17:38;;;;;;;8.52;4.20;;;;;;;8.41;59.66;100226.59;4379618;32;20164;-81
2023/03/30 00:20:07;;;;;;;8.43;4.28;;;;;;;8.28;59.64;100226.75;4406057;32;20730;-82
2023/03/30 00:22:33;;;;;;;8.45;4.12;;;;;;;8.33;59.65;100218.91;4380297;32;20157;-81
2023/03/30 00:24:58;;;;;;;6.85;3.83;;;;;;;8.21;59.64;100221.66;4408224;32;20133;-82
2023/03/30 00:27:24;;;;;;;7.85;4.03;;;;;;;8.44;59.65;100218.75;4381616;32;20427;-81
2023/03/30 00:29:50;;;;;;;11.85;4.72;;;;;;;8.39;59.66;100212.78;4382144;32;20126;-81
2023/03/30 00:32:15;;;;;;;6.97;4.05;;;;;;;8.31;59.65;100216.34;4409043;32;20803;-82
2023/03/30 00:34:41;;;;;;;8.48;4.87;;;;;;;8.22;59.65;100213.00;4409346;32;20431;-82
2023/03/30 00:37:06;;;;;;;7.07;3.80;;;;;;;8.27;59.65;100214.66;4395799;32;20141;-82
2023/03/30 00:39:32;;;;;;;8.15;3.70;;;;;;;8.22;59.65;100208.69;4395228;32;20128;-82
2023/03/30 00:41:58;;;;;;;8.57;3.55;;;;;;;8.21;59.64;100208.69;4395648;32;20165;-82
2023/03/30 00:45:01;;;;;;;6.55;3.10;;;;;;;8.27;59.65;100204.28;4409100;32;20110;-80
2023/03/30 00:47:26;;;;;;;7.25;3.95;;;;;;;8.39;59.66;100199.81;4409290;32;20113;-81
2023/03/30 00:49:52;;;;;;;7.68;3.87;;;;;;;8.23;59.65;100193.97;4383068;32;20154;-81
2023/03/30 00:52:18;;;;;;;8.20;4.18;;;;;;;8.41;59.65;100188.53;4382801;32;20162;-83
2023/03/30 00:54:43;;;;;;;7.05;3.95;;;;;;;8.43;59.65;100185.91;4382899;32;20160;-81
2023/03/30 00:57:09;;;;;;;9.93;4.60;;;;;;;8.25;59.65;100193.06;4382807;32;20381;-81
2023/03/30 00:59:34;;;;;;;10.25;4.47;;;;;;;8.24;59.64;100195.69;4369752;32;22418;-82
2023/03/30 01:02:00;;;;;;;8.30;4.32;;;;;;;8.35;59.65;100187.78;4382907;32;20161;-82
2023/03/30 01:04:27;;;;;;;9.25;4.22;;;;;;;8.25;59.65;100187.88;4409264;32;20132;-81
2023/03/30 01:06:54;;;;;;;9.57;4.10;;;;;;;8.26;59.64;100179.22;4409292;32;20086;-81
2023/03/30 01:09:19;;;;;;;11.12;5.15;;;;;;;8.18;59.64;100175.03;4395403;32;20134;-81
2023/03/30 01:11:45;;;;;;;12.02;5.07;;;;;;;8.25;59.65;100167.13;4382719;32;20479;-81
2023/03/30 01:14:11;;;;;;;11.00;5.68;;;;;;;8.05;59.63;100173.53;4382740;32;20074;-81
2023/03/30 01:16:46;;;;;;;11.68;4.78;;;;;;;8.01;59.63;100162.31;4382832;32;20150;-82
2023/03/30 01:19:20;;;;;;;10.55;5.30;;;;;;;8.27;59.65;100157.59;4395327;32;20102;-81
2023/03/30 01:22:30;;;;;;;10.55;5.37;;;;;;;8.20;59.64;100157.72;4395300;32;20113;-81
2023/03/30 01:25:14;;;;;;;;;;;;;;;8.31;59.65;100150.62;4363904;32;20489;-81
2023/03/30 01:28:01;;;;;;;7.87;4.47;;;;;;;8.54;59.66;100140.75;4376591;32;19990;-82
2023/03/30 01:30:26;;;;;;;10.68;4.15;;;;;;;8.05;59.63;100138.09;4401207;32;20452;-81
2023/03/30 01:33:22;;;;;;;6.55;4.07;;;;;;;8.16;59.64;100136.16;4395118;32;20106;-81
2023/03/30 01:35:53;;;;;;;11.77;5.20;;;;;;;8.05;59.63;100145.03;4394626;32;20101;-81
2023/03/30 01:38:43;;;;;;;10.65;4.90;;;;;;;7.78;59.62;100149.69;4409112;32;20086;-81
2023/03/30 01:41:14;;;;;;;;;;;;;;;7.73;59.62;100146.31;4409301;32;20504;-80
2023/03/30 01:43:42;;;;;;;12.75;5.22;;;;;;;7.63;59.61;100140.44;4382713;32;19997;-81
2023/03/30 01:46:29;;;;;;;9.13;5.72;;;;;;;7.52;59.59;100138.84;4395010;32;20104;-81
2023/03/30 01:49:07;;;;;;;11.20;5.22;;;;;;;7.51;59.60;100130.22;4384466;32;20090;-80
2023/03/30 01:51:36;;;;;;;11.98;5.40;;;;;;;7.44;59.60;100133.78;4383078;32;20110;-81
2023/03/30 01:54:13;;;;;;;14.13;7.28;;;;;;;7.39;59.60;100149.37;4382858;32;20129;-81
2023/03/30 01:56:41;;;;;;;12.50;5.60;;;;;;;7.32;59.58;100147.72;4370084;32;20451;-81
2023/03/30 01:59:20;;;;;;;10.35;6.30;;;;;;;7.29;59.59;100145.19;4382460;32;20098;-81
2023/03/30 02:01:48;;;;;;;10.98;5.45;;;;;;;7.29;59.59;100134.81;4382509;32;20102;-81
2023/03/30 02:04:14;;;;;;;12.30;6.28;;;;;;;7.66;59.61;100130.00;4383034;32;20098;-81
2023/03/30 02:06:42;;;;;;;12.20;6.30;;;;;;;7.58;59.60;100137.06;4369986;32;20120;-82
2023/03/30 02:09:16;;;;;;;11.52;6.10;;;;;;;7.79;59.62;100127.22;4382550;32;20555;-82
2023/03/30 02:11:44;;;;;;;13.98;7.12;;;;;;;7.65;59.61;100119.69;4382232;32;20114;-82
2023/03/30 02:14:09;;;;;;;15.98;6.87;;;;;;;7.65;59.61;100122.28;4382600;32;20470;-81
2023/03/30 02:16:53;;;;;;;14.07;7.05;;;;;;;7.72;59.61;100125.63;4382434;32;20104;-81
2023/03/30 02:19:18;;;;;;;12.40;6.45;;;;;;;7.62;59.62;100120.59;4369860;32;20085;-82
2023/03/30 02:21:44;;;;;;;10.90;6.43;;;;;;;7.50;59.61;100117.28;4381719;32;25634;-81
2023/03/30 02:24:16;;;;;;;12.30;6.40;;;;;;;7.52;59.60;100105.16;4382326;32;20368;-81
2023/03/30 02:26:46;;;;;;;15.15;6.78;;;;;;;7.58;59.61;100102.53;4383003;32;20093;-82
2023/03/30 02:29:12;;;;;;;11.38;6.45;;;;;;;7.47;59.61;100107.84;4382181;32;20140;-82
2023/03/30 02:31:37;;;;;;;14.23;7.22;;;;;;;7.93;59.63;100117.53;4394831;32;20181;-82
2023/03/30 02:34:16;;;;;;;11.48;6.32;;;;;;;7.90;59.62;100115.84;4381905;32;20137;-81
2023/03/30 02:36:59;;;;;;;11.98;6.70;;;;;;;7.61;59.61;100111.09;4382488;32;20094;-81
2023/03/30 02:39:46;;;;;;;13.55;6.87;;;;;;;7.60;59.60;100114.56;4394641;32;20117;-82
2023/03/30 02:42:21;;;;;;;12.90;7.10;;;;;;;7.90;59.62;100117.56;4394435;32;20111;-81
2023/03/30 02:45:15;;;;;;;13.50;7.15;;;;;;;7.75;59.62;100110.88;4408634;32;20094;-82
2023/03/30 02:47:41;;;;;;;12.80;6.28;;;;;;;7.63;59.61;100104.16;4390536;32;20087;-81
2023/03/30 02:50:06;;;;;;;13.35;6.30;;;;;;;7.64;59.61;100105.88;4394541;32;20140;-80
2023/03/30 02:52:54;;;;;;;11.20;6.37;;;;;;;7.62;59.62;100104.19;4394510;32;20125;-80
2023/03/30 02:55:40;;;;;;;12.30;6.87;;;;;;;7.60;59.61;100109.38;4394649;32;20171;-82
2023/03/30 02:58:14;;;;;;;12.93;6.40;;;;;;;7.55;59.61;100103.38;4383744;32;20447;-81
2023/03/30 03:00:58;;;;;;;13.70;5.82;;;;;;;7.94;59.63;100104.53;4381846;32;20082;-80
2023/03/30 03:03:26;;;;;;;12.70;6.20;;;;;;;8.03;59.63;100113.91;4394424;32;20094;-81
2023/03/30 03:05:54;;;;;;;12.25;6.30;;;;;;;7.89;59.62;100113.28;4394545;32;20148;-80
2023/03/30 03:08:22;;;;;;;10.48;5.35;;;;;;;7.74;59.61;100114.34;4370057;32;20097;-81
2023/03/30 03:10:48;;;;;;;13.73;6.37;;;;;;;8.01;59.64;100100.97;4381612;32;20078;-81
2023/03/30 03:13:15;;;;;;;11.82;5.62;;;;;;;7.82;59.62;100111.66;4408296;32;20165;-80
2023/03/30 03:15:44;;;;;;;9.93;5.85;;;;;;;7.91;59.62;100111.50;4394498;32;20098;-81
2023/03/30 03:18:11;;;;;;;10.27;5.68;;;;;;;7.96;59.63;100109.69;4394256;32;20098;-81
2023/03/30 03:20:37;;;;;;;8.52;5.45;;;;;;;7.79;59.62;100122.06;4381931;32;20117;-81
2023/03/30 03:23:02;;;;;;;11.10;5.43;;;;;;;7.88;59.62;100124.53;4394229;32;20479;-81
2023/03/30 03:25:28;;;;;;;9.95;5.20;;;;;;;7.78;59.62;100112.56;4393671;32;24139;-81
2023/03/30 03:27:54;;;;;;;11.30;5.07;;;;;;;7.90;59.62;100117.56;4407490;32;23006;-81
2023/03/30 03:30:20;;;;;;;9.98;4.75;;;;;;;8.16;59.64;100123.22;4394292;32;20102;-82
2023/03/30 03:32:45;;;;;;;11.27;5.72;;;;;;;8.13;59.64;100122.41;4381560;32;20205;-82
2023/03/30 03:35:11;;;;;;;11.80;5.30;;;;;;;8.05;59.63;100122.53;4381437;32;20157;-82
2023/03/30 03:37:36;;;;;;;8.80;5.35;;;;;;;7.91;59.62;100124.47;4369050;32;20117;-82
2023/03/30 03:40:04;;;;;;;9.15;5.22;;;;;;;7.88;59.62;100124.53;4407845;32;20416;-80
2023/03/30 03:42:30;;;;;;;10.32;5.97;;;;;;;7.82;59.62;100130.66;4381556;32;20102;-81
2023/03/30 03:44:55;;;;;;;12.40;5.47;;;;;;;7.83;59.62;100134.97;4393604;32;20127;-81
2023/03/30 03:47:21;;;;;;;13.68;5.25;;;;;;;7.86;59.63;100124.56;4380750;32;22111;-82
2023/03/30 03:49:47;;;;;;;12.02;5.40;;;;;;;7.70;59.62;100121.31;4381254;32;20128;-81
2023/03/30 03:52:12;;;;;;;8.75;4.75;;;;;;;7.88;59.63;100120.19;4393415;32;20098;-81
2023/03/30 03:54:38;;;;;;;10.77;5.28;;;;;;;7.79;59.62;100115.13;4407636;32;20090;-81
2023/03/30 03:57:04;;;;;;;10.25;5.00;;;;;;;7.89;59.62;100105.50;4392883;32;23747;-81
2023/03/30 03:59:30;;;;;;;9.10;5.87;;;;;;;7.79;59.62;100103.91;4382924;32;20087;-80
2023/03/30 04:01:55;;;;;;;10.52;5.53;;;;;;;7.68;59.61;100096.31;4382497;32;20153;-81
2023/03/30 04:04:21;;;;;;;12.70;5.95;;;;;;;7.72;59.61;100097.97;4409222;32;20497;-81
2023/03/30 04:06:46;;;;;;;11.07;5.87;;;;;;;7.79;59.62;100093.53;4409401;32;20400;-82
2023/03/30 04:09:11;;;;;;;12.68;5.68;;;;;;;7.62;59.61;100086.03;4395536;32;20146;-81
2023/03/30 04:11:37;;;;;;;12.30;5.70;;;;;;;7.75;59.62;100089.28;4394693;32;23507;-81
2023/03/30 04:14:02;;;;;;;13.18;5.62;;;;;;;7.75;59.61;100081.53;4409141;32;21326;-81
2023/03/30 04:16:28;;;;;;;8.38;4.97;;;;;;;7.58;59.60;100081.78;4382606;32;20167;-81
2023/03/30 04:18:53;;;;;;;12.48;6.10;;;;;;;7.70;59.62;100072.09;4382888;32;20086;-81
2023/03/30 04:21:19;;;;;;;13.13;5.57;;;;;;;7.63;59.61;100074.81;4382319;32;21025;-81
2023/03/30 04:23:47;;;;;;;11.93;5.05;;;;;;;7.74;59.62;100079.81;4382715;32;20146;-80
2023/03/30 04:26:14;;;;;;;13.32;5.40;;;;;;;7.59;59.61;100080.91;4383892;32;20090;-81
2023/03/30 04:28:39;;;;;;;9.95;5.60;;;;;;;7.50;59.60;100097.41;4395649;32;20504;-81
2023/03/30 04:31:09;;;;;;;12.43;5.87;;;;;;;7.54;59.61;100096.50;4395442;32;20118;-82
2023/03/30 04:33:37;;;;;;;17.92;6.82;;;;;;;7.62;59.61;100096.41;4409485;32;20124;-81
2023/03/30 04:36:03;;;;;;;9.98;5.57;;;;;;;7.93;59.63;100091.59;4395247;32;20495;-80
2023/03/30 04:38:28;;;;;;;15.50;5.45;;;;;;;7.84;59.63;100090.03;4382909;32;20124;-80
2023/03/30 04:40:54;;;;;;;13.02;6.65;;;;;;;7.77;59.63;100087.53;4382852;32;20387;-81
2023/03/30 04:43:20;;;;;;;16.05;5.75;;;;;;;7.78;59.62;100084.06;4395034;32;20485;-81
2023/03/30 04:45:52;;;;;;;12.75;5.22;;;;;;;7.91;59.62;100073.50;4382922;32;20086;-81
2023/03/30 04:48:18;;;;;;;11.88;5.47;;;;;;;8.13;59.64;100076.59;4382736;32;20094;-80
2023/03/30 04:50:44;;;;;;;13.23;5.55;;;;;;;8.26;59.65;100070.28;4395450;32;20488;-81
2023/03/30 04:53:10;;;;;;;14.85;5.78;;;;;;;8.08;59.64;100069.78;4395599;32;20085;-81
2023/03/30 04:55:35;;;;;;;11.48;6.03;;;;;;;8.19;59.64;100075.63;4409041;32;20119;-81
2023/03/30 04:58:01;;;;;;;14.13;6.00;;;;;;;8.25;59.65;100059.94;4395294;32;20117;-81
2023/03/30 05:00:26;;;;;;;9.30;5.87;;;;;;;8.22;59.63;100052.22;4395388;32;20118;-82
2023/03/30 05:02:52;;;;;;;12.27;5.65;;;;;;;8.32;59.65;100058.97;4395060;32;20137;-81
2023/03/30 05:05:17;;;;;;;12.20;5.70;;;;;;;8.37;59.64;100061.53;4382804;32;20148;-80
2023/03/30 05:07:43;;;;;;;12.18;5.95;;;;;;;8.34;59.65;100067.63;4409120;32;20339;-81
2023/03/30 05:10:08;;;;;;;17.25;6.87;;;;;;;8.35;59.64;100060.69;4394160;32;20503;-79
2023/03/30 05:12:34;;;;;;;23.65;8.57;;;;;;;8.48;59.65;100069.94;4395078;32;20128;-81
2023/03/30 05:14:59;;;;;;;19.10;7.72;;;;;;;8.46;59.66;100062.19;4394365;32;22930;-82
2023/03/30 05:17:25;;;;;;;15.52;7.45;;;;;;;8.56;59.66;100057.72;4394982;32;20138;-82
2023/03/30 05:19:52;;;;;;;22.02;7.60;;;;;;;8.52;59.66;100069.88;4369638;32;20138;-82
2023/03/30 05:22:17;;;;;;;19.05;7.53;;;;;;;8.48;59.66;100068.22;4395069;32;20488;-82
2023/03/30 05:24:43;;;;;;;14.77;6.45;;;;;;;8.67;59.67;100067.87;4381868;32;20153;-82
2023/03/30 05:27:08;;;;;;;15.93;6.55;;;;;;;8.45;59.66;100064.81;4381930;32;20108;-81
2023/03/30 05:29:34;;;;;;;15.98;6.70;;;;;;;8.63;59.66;100061.03;4381891;32;20197;-81
2023/03/30 05:31:59;;;;;;;11.63;5.80;;;;;;;8.63;59.66;100067.09;4381950;32;20715;-80
2023/03/30 05:34:25;;;;;;;17.08;6.53;;;;;;;8.56;59.66;100062.91;4394891;32;20133;-81
2023/03/30 05:36:51;;;;;;;11.23;5.93;;;;;;;8.81;59.67;100061.53;4394557;32;20100;-81
2023/03/30 05:39:16;;;;;;;14.98;6.10;;;;;;;8.92;59.68;100061.31;4382198;32;20190;-81
2023/03/30 05:41:42;;;;;;;15.43;6.53;;;;;;;8.85;59.68;100055.41;4395010;32;20138;-81
2023/03/30 05:44:07;;;;;;;15.80;5.85;;;;;;;8.94;59.68;100049.16;4394618;32;20161;-82
2023/03/30 05:46:33;;;;;;;20.08;6.12;;;;;;;9.02;59.69;100049.88;4382323;32;20129;-81
2023/03/30 05:48:58;;;;;;;19.98;7.37;;;;;;;9.02;59.68;100049.00;4394092;32;20110;-81
2023/03/30 05:51:23;;;;;;;15.65;7.00;;;;;;;9.22;59.70;100050.28;4408503;32;20487;-81
2023/03/30 05:53:49;;;;;;;14.65;7.05;;;;;;;9.09;59.69;100064.41;4394472;32;20383;-82
2023/03/30 05:56:15;;;;;;;19.52;7.65;;;;;;;9.09;59.69;100069.62;4407079;32;25110;-81
2023/03/30 05:58:41;;;;;;;14.60;6.53;;;;;;;9.30;59.71;100073.50;4408709;32;20098;-81
2023/03/30 06:01:08;;;;;;;16.92;7.45;;;;;;;9.45;59.71;100067.94;4382661;32;20197;-81
2023/03/30 06:03:33;;;;;;;18.33;8.38;;;;;;;9.60;59.72;100071.09;4395246;32;20127;-81
2023/03/30 06:05:59;;;;;;;19.35;6.45;;;;;;;9.81;59.74;100057.59;4382245;32;20094;-81
2023/03/30 06:08:25;;;;;;;13.35;6.22;;;;;;;9.95;59.74;100052.09;4394527;32;20428;-81
2023/03/30 06:10:54;;;;;;;12.32;6.12;;;;;;;10.09;59.75;100053.44;4395042;32;20128;-81
2023/03/30 06:13:20;;;;;;;11.32;6.30;;;;;;;10.28;59.76;100045.19;4382458;32;20098;-82
2023/03/30 06:15:46;;;;;;;12.73;6.15;;;;;;;10.37;59.76;100042.34;4407508;32;20408;-81
2023/03/30 06:18:11;;;;;;;16.40;6.55;;;;;;;10.35;59.76;100037.19;4408702;32;20117;-81
2023/03/30 06:20:37;;;;;;;13.48;5.97;;;;;;;10.61;59.77;100035.62;4394580;32;20198;-81
2023/03/30 06:23:02;;;;;;;11.88;5.57;;;;;;;10.64;59.78;100031.19;4394620;32;20120;-81
2023/03/30 06:25:28;;;;;;;12.93;5.72;;;;;;;10.82;59.78;100026.38;4381903;32;21343;-80
2023/03/30 06:27:54;;;;;;;13.05;5.78;;;;;;;10.95;59.79;100020.78;4382252;32;20109;-81
2023/03/30 06:30:19;;;;;;;11.27;6.43;;;;;;;10.86;59.79;100022.78;4394815;32;20122;-81
2023/03/30 06:32:45;;;;;;;12.45;5.97;;;;;;;10.93;59.79;100013.91;4382384;32;20109;-81
2023/03/30 06:35:12;;;;;;;10.18;5.28;;;;;;;10.89;59.79;100013.16;4382037;32;20098;-80
2023/03/30 06:37:37;;;;;;;14.80;6.60;;;;;;;11.16;59.81;100005.41;4408894;32;20168;-80
2023/03/30 06:40:12;;;;;;;14.13;6.47;;;;;;;11.07;59.80;100002.16;4394624;32;20106;-82
2023/03/30 06:42:42;;;;;;;13.80;6.80;;;;;;;10.96;59.79;100006.84;4408581;32;20124;-82
2023/03/30 06:45:09;;;;;;;;;;;;;;;11.13;59.80;100006.34;4382850;32;20117;-81
2023/03/30 06:47:34;;;;;;;13.60;5.97;;;;;;;11.37;59.82;100003.00;4394853;32;20035;-81
2023/03/30 06:50:00;;;;;;;12.85;6.50;;;;;;;11.50;59.82;100015.62;4382111;32;20133;-80
2023/03/30 06:52:25;;;;;;;14.35;6.30;;;;;;;11.39;59.82;100013.37;4382021;32;20150;-81
2023/03/30 06:54:51;;;;;;;14.40;6.78;;;;;;;11.22;59.80;100010.44;4382079;32;20106;-82
2023/03/30 06:57:16;;;;;;;14.43;6.70;;;;;;;11.30;59.82;100006.66;4407811;32;22111;-81
2023/03/30 06:59:41;;;;;;;17.45;6.93;;;;;;;11.12;59.80;100009.87;4408078;32;20181;-81
2023/03/30 07:02:12;;;;;;;18.48;7.28;;;;;;;11.02;59.80;100017.06;4394095;32;20174;-81
2023/03/30 07:04:37;;;;;;;15.77;6.37;;;;;;;11.02;59.80;100021.44;4382026;32;20083;-81
2023/03/30 07:07:03;;;;;;;12.82;6.35;;;;;;;10.99;59.79;100026.75;4407977;32;20153;-81
2023/03/30 07:09:28;;;;;;;16.92;6.40;;;;;;;11.17;59.81;100028.81;4394125;32;20133;-81
2023/03/30 07:11:53;;;;;;;16.08;6.53;;;;;;;11.26;59.81;100033.72;4394309;32;20195;-81
2023/03/30 07:14:19;;;;;;;14.07;6.97;;;;;;;11.35;59.81;100025.62;4381720;32;20436;-81
2023/03/30 07:16:47;;;;;;;14.15;6.30;;;;;;;11.30;59.82;100011.88;4394321;32;20132;-81
2023/03/30 07:19:12;;;;;;;14.45;6.20;;;;;;;11.41;59.82;100018.53;4408165;32;20162;-81
2023/03/30 07:21:37;;;;;;;15.35;6.47;;;;;;;11.61;59.83;100021.38;4394324;32;20118;-81
2023/03/30 07:24:03;;;;;;;12.65;5.75;;;;;;;11.62;59.83;100030.91;4394287;32;20514;-82
2023/03/30 07:26:29;;;;;;;12.30;5.87;;;;;;;11.82;59.84;100027.66;4394141;32;20364;-81
2023/03/30 07:28:55;;;;;;;17.90;6.10;;;;;;;11.88;59.84;100019.66;4381595;32;20102;-81
2023/03/30 07:31:22;;;;;;;13.80;5.97;;;;;;;12.24;59.87;100021.00;4369247;32;20516;-81
2023/03/30 07:33:47;;;;;;;13.13;6.65;;;;;;;12.49;59.88;100017.53;4382928;32;20122;-81
2023/03/30 07:36:13;;;;;;;12.23;5.93;;;;;;;12.70;59.89;100014.16;4383491;32;20101;-82
2023/03/30 07:38:38;;;;;;;13.40;6.50;;;;;;;12.79;59.89;100003.41;4396000;32;20125;-81
2023/03/30 07:41:08;;;;;;;14.02;5.95;;;;;;;12.74;59.90;100013.13;4371111;32;20189;-82
2023/03/30 07:43:34;;;;;;;12.32;6.00;;;;;;;12.99;59.91;100009.59;4383440;32;20095;-81
2023/03/30 07:45:59;;;;;;;11.90;6.78;;;;;;;13.14;59.92;100003.81;4395903;32;20103;-81
2023/03/30 07:48:25;;;;;;;14.52;6.53;;;;;;;13.37;59.93;100005.56;4395787;32;20446;-81
2023/03/30 07:51:18;;;;;;;11.75;6.72;;;;;;;13.32;59.93;100018.81;4409814;32;20164;-81
2023/03/30 07:53:46;;;;;;;17.05;6.90;;;;;;;13.45;59.93;100024.41;4385438;32;20434;-81
2023/03/30 07:56:11;;;;;;;13.00;6.25;;;;;;;13.69;59.95;100027.81;4395920;32;20846;-81
2023/03/30 07:58:38;;;;;;;14.48;7.03;;;;;;;13.75;59.95;100022.34;4370197;32;22021;-81
2023/03/30 08:01:03;;;;;;;12.98;6.90;;;;;;;13.89;59.96;100008.69;4395919;32;20200;-81
2023/03/30 08:03:30;;;;;;;12.65;6.55;;;;;;;13.92;59.96;100004.19;4409822;32;20086;-81
2023/03/30 08:06:02;;;;;;;19.27;6.93;;;;;;;14.19;59.98;99994.31;4383751;32;20097;-81
2023/03/30 08:08:28;;;;;;;16.08;7.75;;;;;;;14.56;60.00;99983.13;4383678;32;20117;-81
2023/03/30 08:10:53;;;;;;;14.20;6.85;;;;;;;14.73;60.00;99987.63;4395011;32;29486;-81
2023/03/30 08:13:19;;;;;;;14.75;7.15;;;;;;;14.89;60.01;99985.13;4382889;32;20102;-81
2023/03/30 08:15:45;;;;;;;13.62;6.95;;;;;;;14.93;60.01;99978.84;4383190;32;20125;-81
2023/03/30 08:18:11;;;;;;;20.98;7.72;;;;;;;14.96;60.02;99983.94;4395870;32;20114;-80
2023/03/30 08:20:37;;;;;;;12.65;6.87;;;;;;;14.90;60.01;99982.44;4395917;32;20484;-80
2023/03/30 08:23:06;;;;;;;10.52;6.47;;;;;;;14.89;60.01;99978.09;4370737;32;20117;-81
2023/03/30 08:25:32;;;;;;;13.23;6.78;;;;;;;15.02;60.02;99976.63;4395795;32;20160;-81
2023/03/30 08:27:57;;;;;;;15.13;7.07;;;;;;;14.91;60.01;99985.94;4383258;32;20106;-81
2023/03/30 08:30:23;;;;;;;11.32;6.82;;;;;;;14.95;60.02;99983.09;4409370;32;20464;-81
2023/03/30 08:32:49;;;;;;;13.80;7.10;;;;;;;14.89;60.01;99991.22;4408906;32;23573;-81
2023/03/30 08:35:15;;;;;;;12.10;7.95;;;;;;;14.95;60.02;99988.34;4395740;32;20102;-81
2023/03/30 08:37:41;;;;;;;14.25;7.15;;;;;;;15.04;60.02;99985.28;4382986;32;20156;-81
2023/03/30 08:40:09;;;;;;;14.20;7.47;;;;;;;15.22;60.03;99985.34;4408855;32;22667;-81
2023/03/30 08:43:02;;;;;;;15.63;7.12;;;;;;;15.22;60.03;99986.19;4395695;32;20081;-81
2023/03/30 08:45:35;;;;;;;12.65;6.93;;;;;;;15.21;60.03;99988.88;4408546;32;20472;-81
2023/03/30 08:48:01;;;;;;;14.60;7.90;;;;;;;15.19;60.03;99973.22;4382942;32;20106;-81
2023/03/30 08:50:33;;;;;;;17.85;7.85;;;;;;;15.32;60.04;99973.47;4369808;32;20147;-81
2023/03/30 08:52:59;;;;;;;16.75;7.97;;;;;;;15.32;60.04;99982.19;4395592;32;20090;-81
2023/03/30 08:55:37;;;;;;;14.20;7.57;;;;;;;15.34;60.04;99982.97;4395543;32;20098;-81
2023/03/30 08:58:18;;;;;;;16.30;8.02;;;;;;;15.43;60.05;99984.31;4395256;32;20153;-81
2023/03/30 09:00:51;;;;;;;16.48;8.32;;;;;;;15.73;60.06;99978.53;4409337;32;20085;-81
2023/03/30 09:03:21;;;;;;;14.10;8.38;;;;;;;15.98;60.07;99958.00;4396169;32;20104;-81
2023/03/30 09:05:52;;;;;;;;;;;;;;;16.11;60.08;99966.97;4383193;32;20453;-81
2023/03/30 09:08:21;;;;;;;;;;;;;;;15.90;60.06;99968.91;4395769;32;20349;-81
2023/03/30 09:10:51;;;;;;;15.80;8.33;;;;;;;15.80;60.06;99966.78;4395560;32;20343;-81
2023/03/30 09:13:17;;;;;;;15.75;8.05;;;;;;;16.03;60.07;99966.47;4382563;32;20466;-81
2023/03/30 09:16:18;;;;;;;20.15;9.65;;;;;;;16.27;60.09;99959.97;4395422;32;20453;-81
2023/03/30 09:18:43;;;;;;;14.68;8.50;;;;;;;16.45;60.09;99959.94;4382747;32;20101;-81
2023/03/30 09:21:10;;;;;;;15.05;8.75;;;;;;;16.45;60.09;99949.44;4382666;32;20124;-81
2023/03/30 09:23:36;;;;;;;13.70;8.25;;;;;;;16.67;60.11;99949.16;4382512;32;20165;-81
2023/03/30 09:26:22;;;;;;;15.98;8.43;;;;;;;16.97;60.13;99947.50;4382640;32;20373;-81
2023/03/30 09:28:54;;;;;;;13.98;8.48;;;;;;;17.02;60.13;99937.56;4395136;32;20132;-81
2023/03/30 09:31:43;;;;;;;13.77;8.85;;;;;;;17.16;60.14;99936.81;4395147;32;20125;-81
2023/03/30 09:34:30;;;;;;;18.80;8.43;;;;;;;17.28;60.14;99938.75;4383492;32;20098;-81
2023/03/30 09:36:56;;;;;;;13.68;8.98;;;;;;;17.43;60.15;99923.88;4382468;32;20169;-81
2023/03/30 09:39:29;;;;;;;15.68;9.52;;;;;;;17.34;60.15;99924.41;4382506;32;20110;-81
2023/03/30 09:42:00;;;;;;;16.08;7.82;;;;;;;17.33;60.14;99913.03;4395159;32;20163;-81
2023/03/30 09:44:36;;;;;;;17.92;8.48;;;;;;;17.42;60.15;99907.22;4395143;32;20572;-81
2023/03/30 09:47:02;;;;;;;16.52;8.90;;;;;;;17.34;60.15;99904.19;4382549;32;20171;-81
2023/03/30 09:49:32;;;;;;;18.05;9.18;;;;;;;17.36;60.14;99912.84;4388989;32;203267;-81
2023/03/30 09:52:02;;;;;;;12.88;8.35;;;;;;;17.56;60.15;99898.53;4370965;32;20690;-81
2023/03/30 09:54:38;;;;;;;19.40;11.48;;;;;;;17.62;60.17;99903.44;4382699;32;20486;-80
2023/03/30 09:57:03;;;;;;;18.40;9.70;;;;;;;17.66;60.16;99902.31;4395011;32;20110;-81
2023/03/30 09:59:33;;;;;;;17.73;8.98;;;;;;;17.72;60.16;99898.50;4394991;32;20156;-81
2023/03/30 10:02:11;;;;;;;16.80;9.38;;;;;;;17.74;60.17;99881.72;4395181;32;20086;-81
2023/03/30 10:04:56;;;;;;;15.68;9.38;;;;;;;17.85;60.18;99883.69;4408955;32;20435;-81
2023/03/30 10:07:42;;;;;;;17.23;10.27;;;;;;;17.82;60.17;99880.41;4382599;32;20098;-81
2023/03/30 10:10:26;;;;;;;25.30;13.15;;;;;;;17.70;60.17;99884.59;4394626;32;20217;-81
2023/03/30 10:13:00;;;;;;;26.10;13.48;;;;;;;17.70;60.17;99885.44;4408912;32;20086;-81
2023/03/30 10:15:26;;;;;;;15.95;9.35;;;;;;;17.86;60.18;99890.66;4395528;32;20094;-81
2023/03/30 10:17:55;;;;;;;16.23;9.40;;;;;;;17.99;60.19;99882.88;4408841;32;20094;-82
2023/03/30 10:20:35;;;;;;;15.50;9.20;;;;;;;18.13;60.19;99887.28;4383060;32;20159;-81
2023/03/30 10:23:04;;;;;;;21.27;10.25;;;;;;;18.33;60.20;99884.28;4383038;32;20487;-81
2023/03/30 10:25:31;;;;;;;18.00;9.63;;;;;;;18.28;60.20;99879.31;4395026;32;20078;-81
2023/03/30 10:28:01;;;;;;;15.82;9.05;;;;;;;18.17;60.19;99865.94;4382276;32;20148;-81
2023/03/30 10:30:28;;;;;;;20.95;9.60;;;;;;;18.16;60.19;99858.13;4382380;32;20110;-81
2023/03/30 10:32:55;;;;;;;18.05;9.82;;;;;;;18.11;60.19;99853.12;4394985;32;20081;-81
2023/03/30 10:35:23;;;;;;;18.05;8.80;;;;;;;18.21;60.19;99850.78;4382279;32;20439;-81
2023/03/30 10:37:50;;;;;;;14.65;8.52;;;;;;;18.51;60.21;99840.97;4394875;32;20105;-81
2023/03/30 10:40:25;;;;;;;15.00;7.93;;;;;;;18.82;60.23;99837.25;4382315;32;20110;-81
2023/03/30 10:42:54;;;;;;;16.62;8.82;;;;;;;19.12;60.24;99831.75;4394839;32;20112;-81
2023/03/30 10:45:41;;;;;;;15.68;8.88;;;;;;;19.10;60.24;99830.16;4369965;32;20097;-81
2023/03/30 10:48:45;;;;;;;14.38;8.60;;;;;;;19.17;60.25;99823.56;4397278;32;20106;-81
2023/03/30 10:51:29;;;;;;;17.27;10.35;;;;;;;19.16;60.25;99835.03;4408609;32;20090;-81
2023/03/30 10:54:13;;;;;;;15.13;9.25;;;;;;;19.20;60.24;99826.84;4394573;32;20116;-81
2023/03/30 10:56:39;;;;;;;12.18;7.78;;;;;;;19.08;60.24;99819.72;4394592;32;20487;-81
2023/03/30 10:59:31;;;;;;;16.67;8.50;;;;;;;19.28;60.25;99811.31;4394501;32;20478;-81
2023/03/30 11:02:12;;;;;;;12.10;8.13;;;;;;;19.41;60.26;99798.16;4396897;32;20101;-82
2023/03/30 11:04:42;;;;;;;11.02;7.32;;;;;;;19.35;60.25;99795.06;4394682;32;20801;-81
2023/03/30 11:07:23;;;;;;;15.40;8.77;;;;;;;19.47;60.27;99807.47;4381422;32;20485;-81
2023/03/30 11:09:52;;;;;;;12.88;8.57;;;;;;;19.60;60.27;99809.19;4383307;32;20093;-81
2023/03/30 11:12:19;;;;;;;15.77;8.40;;;;;;;19.51;60.26;99804.50;4381884;32;20455;-81
2023/03/30 11:14:50;;;;;;;16.25;7.85;;;;;;;19.44;60.26;99808.50;4382073;32;20512;-81
2023/03/30 11:17:21;;;;;;;13.70;7.62;;;;;;;19.38;60.26;99806.25;4408285;32;20098;-81
2023/03/30 11:19:58;;;;;;;11.85;6.93;;;;;;;19.12;60.24;99802.72;4381871;32;20110;-81
2023/03/30 11:23:09;;;;;;;13.20;6.45;;;;;;;19.38;60.26;99800.97;4382331;32;20184;-81
2023/03/30 11:25:57;;;;;;;12.15;6.50;;;;;;;19.56;60.27;99809.50;4362900;32;20102;-82
2023/03/30 11:28:28;;;;;;;12.05;5.90;;;;;;;19.58;60.27;99794.38;4363009;32;20119;-81
2023/03/30 11:30:55;;;;;;;10.32;6.40;;;;;;;19.72;60.28;99785.53;4396895;32;20581;-81
2023/03/30 11:33:40;;;;;;;10.80;6.50;;;;;;;19.57;60.27;99785.63;4394611;32;20122;-81
2023/03/30 11:36:17;;;;;;;10.20;5.78;;;;;;;19.80;60.28;99775.28;4380869;32;20097;-80
2023/03/30 11:39:03;;;;;;;11.00;5.80;;;;;;;19.77;60.28;99781.63;4380175;32;20120;-80